Time;durP1;ratioP1;P1;durP2;ratioP2;P2;SDS_P1;SDS_P2;PMS_P1;PMS_P2;Temp;Humidity;BMP_temperature;BMP_pressure;BME280_temperature;BME280_humidity;BME280_pressure;Samples;Min_cycle;Max_cycle;Signal;HPM_P1;HPM_P2
2020/12/07 00:07:56;;;;;;;18.4;10.9;;;;;;;-0.05;90.11719;97952.34;;;;
2020/12/07 00:17:53;;;;;;;12.6;10;;;;;;;0.1;89.70898;97961.45;;;;
2020/12/07 00:27:51;;;;;;;14.7;11.4;;;;;;;0;88.96484;97962.19;;;;
2020/12/07 00:37:48;;;;;;;15.7;9.5;;;;;;;-0.07;89.17969;97964.25;;;;
2020/12/07 00:47:46;;;;;;;16.1;9.3;;;;;;;-0.12;90.10254;97943.82;;;;
2020/12/07 00:57:44;;;;;;;14.1;9.5;;;;;;;-0.13;90.15332;97928.17;;;;
2020/12/07 01:07:41;;;;;;;15.3;12;;;;;;;-0.16;89.97266;97910.95;;;;
2020/12/07 01:17:38;;;;;;;13.3;8.5;;;;;;;-0.15;90.19531;97909.91;;;;
2020/12/07 01:27:36;;;;;;;11.9;8.2;;;;;;;-0.04;89.88672;97902.83;;;;
2020/12/07 01:37:33;;;;;;;14;9;;;;;;;-0.08;89.51758;97880.55;;;;
2020/12/07 01:47:31;;;;;;;13.3;9;;;;;;;-0.11;89.01855;97910.2;;;;
2020/12/07 01:57:28;;;;;;;11.5;7.5;;;;;;;-0.21;89.42383;97900.31;;;;
2020/12/07 02:07:25;;;;;;;17.7;10.7;;;;;;;-0.27;89.57715;97901.34;;;;
2020/12/07 02:17:23;;;;;;;12.4;8.8;;;;;;;-0.32;90.21191;97887.28;;;;
2020/12/07 02:27:24;;;;;;;10.1;7.6;;;;;;;-0.15;90.0293;97869.39;;;;
2020/12/07 02:37:22;;;;;;;12.1;7.4;;;;;;;-0.1;89.72266;97859.61;;;;
2020/12/07 02:47:15;;;;;;;9.6;6.7;;;;;;;0.05;89.39258;97856.25;;;;
2020/12/07 02:57:13;;;;;;;10.7;6.9;;;;;;;0.11;88.68848;97865;;;;
2020/12/07 03:07:10;;;;;;;12.4;6.6;;;;;;;0;88.81055;97849.06;;;;
2020/12/07 03:17:08;;;;;;;10.5;6.7;;;;;;;0.11;89.00684;97830.56;;;;
2020/12/07 03:27:05;;;;;;;9;6.5;;;;;;;0.19;88.63086;97838.03;;;;
2020/12/07 03:37:03;;;;;;;11;7.6;;;;;;;0.29;88.33203;97843.37;;;;
2020/12/07 03:47:00;;;;;;;9.8;6.2;;;;;;;0.22;87.91309;97830.36;;;;
2020/12/07 03:56:58;;;;;;;9;5.8;;;;;;;0.14;88.50977;97835.38;;;;
2020/12/07 04:06:58;;;;;;;10.7;7.3;;;;;;;0.15;88.5791;97824.5;;;;
2020/12/07 04:16:53;;;;;;;10.8;7.6;;;;;;;0.22;88.49316;97840.16;;;;
2020/12/07 04:26:50;;;;;;;12.8;8.7;;;;;;;0.42;88.18457;97832.27;;;;
2020/12/07 04:36:48;;;;;;;10.9;6.1;;;;;;;0.52;88.04004;97834.98;;;;
2020/12/07 04:46:45;;;;;;;10.4;6.2;;;;;;;0.66;87.37695;97841.36;;;;
2020/12/07 04:56:43;;;;;;;9.5;6.6;;;;;;;0.59;87.14063;97824.13;;;;
2020/12/07 05:06:40;;;;;;;9.4;6.1;;;;;;;0.66;87.19922;97811.42;;;;
2020/12/07 05:16:38;;;;;;;9.8;6;;;;;;;0.7;86.93555;97810.61;;;;
2020/12/07 05:26:36;;;;;;;9.5;5.8;;;;;;;0.77;86.61816;97811.16;;;;
2020/12/07 05:36:33;;;;;;;9.6;6.6;;;;;;;0.85;86.16211;97810.64;;;;
2020/12/07 05:46:31;;;;;;;8.7;5.6;;;;;;;0.9;85.6543;97841.69;;;;
2020/12/07 05:56:29;;;;;;;11.6;6.2;;;;;;;0.86;85.3623;97833.46;;;;
2020/12/07 06:06:29;;;;;;;5.9;5.3;;;;;;;0.76;85.44043;97838.75;;;;
2020/12/07 06:16:24;;;;;;;9.7;5.5;;;;;;;0.74;85.49121;97851.46;;;;
2020/12/07 06:26:21;;;;;;;11.6;8.6;;;;;;;0.65;85.68262;97842.44;;;;
2020/12/07 06:36:28;;;;;;;12.8;8.2;;;;;;;0.49;86.0918;97854.84;;;;
2020/12/07 06:46:17;;;;;;;12.1;8.5;;;;;;;0.43;86.1543;97868.33;;;;
2020/12/07 06:56:14;;;;;;;11.1;8.4;;;;;;;0.37;86.30664;97885.28;;;;
2020/12/07 07:06:12;;;;;;;8.7;7.1;;;;;;;0.42;86.29492;97894.04;;;;
2020/12/07 07:16:10;;;;;;;12.1;8.3;;;;;;;0.58;85.4707;97905.52;;;;
2020/12/07 07:26:12;;;;;;;14.2;9.1;;;;;;;0.67;85.16895;97909.25;;;;
2020/12/07 07:36:05;;;;;;;12.3;9;;;;;;;0.63;85.31445;97926.73;;;;
2020/12/07 07:46:03;;;;;;;11.7;8.5;;;;;;;0.68;85.55566;97936.56;;;;
2020/12/07 08:15:56;;;;;;;15.6;10.1;;;;;;;1.2;83.77832;97953.17;;;;
2020/12/07 08:25:54;;;;;;;14.4;10;;;;;;;1.13;84.04883;97952.63;;;;
2020/12/07 08:35:51;;;;;;;13.8;10.1;;;;;;;1.14;84.25098;97959.53;;;;
2020/12/07 08:45:49;;;;;;;10;9;;;;;;;1.39;83.50586;97946.29;;;;
2020/12/07 08:55:47;;;;;;;14.6;10.9;;;;;;;1.55;83.12793;97955.08;;;;
2020/12/07 09:05:45;;;;;;;15.1;10.3;;;;;;;1.65;82.35254;97959.59;;;;
2020/12/07 09:15:43;;;;;;;16.2;10.6;;;;;;;1.79;82.12695;97956.16;;;;
2020/12/07 09:25:41;;;;;;;15.4;11.3;;;;;;;1.76;82.27539;97947.91;;;;
2020/12/07 09:35:38;;;;;;;14.3;10.6;;;;;;;1.8;81.68848;97971.03;;;;
2020/12/07 09:45:36;;;;;;;12.8;10.6;;;;;;;2.01;81.51758;97950.56;;;;
2020/12/07 09:55:34;;;;;;;15.3;9.6;;;;;;;2.14;80.90039;97933.26;;;;
2020/12/07 10:05:32;;;;;;;17.6;12.5;;;;;;;2.32;80.94531;97932.7;;;;
2020/12/07 10:15:30;;;;;;;17.8;12.7;;;;;;;2.54;79.85938;97938.46;;;;
2020/12/07 10:25:28;;;;;;;15.6;11.2;;;;;;;2.76;79.36914;97936.26;;;;
2020/12/07 10:35:26;;;;;;;15.9;12.9;;;;;;;2.76;79.03711;97949.56;;;;
2020/12/07 10:45:24;;;;;;;16;12.3;;;;;;;3.03;79.02148;97939.32;;;;
2020/12/07 10:55:21;;;;;;;17.6;11.7;;;;;;;3.36;77.53906;97956.45;;;;
2020/12/07 11:05:20;;;;;;;12.8;10.8;;;;;;;3.59;77.38184;97946.95;;;;
2020/12/07 11:15:18;;;;;;;13.9;11.6;;;;;;;3.87;76.73145;97940.88;;;;
2020/12/07 11:25:16;;;;;;;14.5;10.8;;;;;;;4.19;75.48633;97947.52;;;;
2020/12/07 11:35:14;;;;;;;16.5;11.7;;;;;;;4.38;75.04199;97937.72;;;;
2020/12/07 11:45:12;;;;;;;18.2;15.9;;;;;;;4.55;74.77148;97927.39;;;;
2020/12/07 11:55:10;;;;;;;17.2;11.9;;;;;;;4.68;73.83691;97921.38;;;;
2020/12/07 12:05:08;;;;;;;13.7;11.9;;;;;;;4.86;74.27832;97917.16;;;;
2020/12/07 12:15:06;;;;;;;15.3;11.8;;;;;;;5.04;73.83105;97914.5;;;;
2020/12/07 12:25:06;;;;;;;21.5;11.6;;;;;;;5.16;73.47363;97908.73;;;;
2020/12/07 12:35:02;;;;;;;14.2;9.8;;;;;;;5.26;72.58496;97910.46;;;;
2020/12/07 12:45:01;;;;;;;15.3;12.9;;;;;;;5.15;72.85645;97925.84;;;;
2020/12/07 12:54:59;;;;;;;19.7;13.7;;;;;;;4.81;73.30078;97931.36;;;;
2020/12/07 13:04:57;;;;;;;15.2;13.7;;;;;;;4.65;73.6748;97937.94;;;;
2020/12/07 13:14:55;;;;;;;19.6;13.6;;;;;;;4.33;74.55566;97951.12;;;;
2020/12/07 13:24:57;;;;;;;19.1;13.4;;;;;;;4.3;74.69629;97947.16;;;;
2020/12/07 13:34:51;;;;;;;19.1;11.7;;;;;;;4.14;75.24707;97945.69;;;;
2020/12/07 13:44:49;;;;;;;16.6;14.8;;;;;;;3.84;76.08105;97937.97;;;;
2020/12/07 13:54:47;;;;;;;28;20.7;;;;;;;3.77;75.8252;97932.17;;;;
2020/12/07 14:04:51;;;;;;;29.3;23.3;;;;;;;3.71;75.91406;97955.41;;;;
2020/12/07 14:14:43;;;;;;;19;13.8;;;;;;;3.56;75.78809;97966.16;;;;
2020/12/07 14:24:50;;;;;;;18;14.5;;;;;;;3.34;76.69336;97979.88;;;;
2020/12/07 14:44:41;;;;;;;16.8;11.8;;;;;;;3.07;77.08691;97992.01;;;;
2020/12/07 14:54:39;;;;;;;30.9;13.5;;;;;;;3.07;76.74316;98027.41;;;;
2020/12/07 15:14:31;;;;;;;22.5;14.9;;;;;;;2.78;77.51172;98013.94;;;;
2020/12/07 15:24:29;;;;;;;21.7;17.2;;;;;;;2.67;77.94727;98004.41;;;;
2020/12/07 15:34:27;;;;;;;28.7;19;;;;;;;2.61;78.0127;98016.11;;;;
2020/12/07 15:44:25;;;;;;;18.7;13.9;;;;;;;2.45;78.28223;98011.9;;;;
2020/12/07 15:54:22;;;;;;;24.8;16.9;;;;;;;2.31;78.65527;97998.36;;;;
2020/12/07 16:04:21;;;;;;;25.4;19.5;;;;;;;2.14;79.51953;98002.37;;;;
2020/12/07 16:14:21;;;;;;;31.5;23.3;;;;;;;2.03;80.12891;97985.63;;;;
2020/12/07 16:24:16;;;;;;;19.7;17.6;;;;;;;2.11;79.78906;97973.67;;;;
2020/12/07 16:34:14;;;;;;;27.4;22.3;;;;;;;2.16;79.69922;97968.33;;;;
2020/12/07 16:44:12;;;;;;;38.9;22.3;;;;;;;2.12;79.26172;97969.95;;;;
2020/12/07 16:54:09;;;;;;;34.5;25;;;;;;;2.1;79.41309;97988.81;;;;
2020/12/07 17:04:07;;;;;;;34.5;26.3;;;;;;;2;79.68066;97996.8;;;;
2020/12/07 17:14:05;;;;;;;24.1;20.2;;;;;;;1.93;79.51465;98004.23;;;;
2020/12/07 17:24:03;;;;;;;32.5;24.7;;;;;;;1.79;79.60938;97993.34;;;;
2020/12/07 17:34:01;;;;;;;30.7;23;;;;;;;1.67;80.12695;97999.95;;;;
2020/12/07 17:43:59;;;;;;;29.1;24.6;;;;;;;1.66;79.61914;98023.08;;;;
2020/12/07 17:53:56;;;;;;;40.5;25.7;;;;;;;1.5;80.17285;98024.09;;;;
2020/12/07 18:03:54;;;;;;;40.8;23.5;;;;;;;1.39;80.96875;98035.75;;;;
2020/12/07 18:13:52;;;;;;;25.6;20.8;;;;;;;1.24;81.7998;98043.69;;;;
2020/12/07 18:23:50;;;;;;;38.6;26;;;;;;;1.1;82.11621;98048.68;;;;
2020/12/07 18:33:48;;;;;;;29.8;26;;;;;;;1.04;82.64355;98046.27;;;;
2020/12/07 18:43:46;;;;;;;30.9;23.2;;;;;;;0.86;83.44629;98052.81;;;;
2020/12/07 18:53:43;;;;;;;32.4;25.2;;;;;;;0.64;84.08398;98038.89;;;;
2020/12/07 19:03:41;;;;;;;33.2;26.8;;;;;;;0.42;85.19629;98041.66;;;;
2020/12/07 19:13:43;;;;;;;32.9;23.5;;;;;;;0.37;85.52637;98049.6;;;;
2020/12/07 19:23:36;;;;;;;35.7;24.8;;;;;;;0.28;85.78516;98051.91;;;;
2020/12/07 19:33:37;;;;;;;29.8;22.9;;;;;;;0.24;86.11621;98056.15;;;;
2020/12/07 19:43:33;;;;;;;35.9;30;;;;;;;0.14;86.17188;98068.52;;;;
2020/12/07 19:53:29;;;;;;;61.2;40.1;;;;;;;0.16;86.14453;98069.86;;;;
2020/12/07 20:03:35;;;;;;;34.8;27.2;;;;;;;-0.02;85.625;98084.27;;;;
2020/12/07 20:13:39;;;;;;;36.3;27.3;;;;;;;-0.11;86.54004;98096.38;;;;
2020/12/07 20:23:22;;;;;;;34.4;22.7;;;;;;;-0.13;86.1084;98095.81;;;;
2020/12/07 20:33:22;;;;;;;29.7;23.8;;;;;;;-0.23;86.52539;98098.37;;;;
2020/12/07 20:43:18;;;;;;;34.6;24;;;;;;;-0.23;86.5918;98106.31;;;;
2020/12/07 20:53:15;;;;;;;25;21.8;;;;;;;-0.18;85.99902;98119.62;;;;
2020/12/07 21:03:13;;;;;;;37.1;25;;;;;;;-0.27;86.2002;98118.44;;;;
2020/12/07 21:13:11;;;;;;;27.1;19.7;;;;;;;-0.24;86.08496;98122.44;;;;
2020/12/07 21:23:08;;;;;;;35.2;21.3;;;;;;;-0.27;86.35352;98134.33;;;;
2020/12/07 21:33:06;;;;;;;29.9;22.4;;;;;;;-0.28;86.2959;98137.24;;;;
2020/12/07 21:43:06;;;;;;;44.7;30.5;;;;;;;-0.33;86.21875;98126.58;;;;
2020/12/07 21:53:01;;;;;;;38.4;26.7;;;;;;;-0.31;86.53125;98124.51;;;;
2020/12/07 22:02:59;;;;;;;35.7;27;;;;;;;-0.35;86.39063;98118.11;;;;
2020/12/07 22:12:57;;;;;;;31.3;24.4;;;;;;;-0.39;86.55859;98117;;;;
2020/12/07 22:22:54;;;;;;;30;22.7;;;;;;;-0.43;86.53906;98115.89;;;;
2020/12/07 22:32:52;;;;;;;28.8;24.3;;;;;;;-0.49;86.74512;98124.83;;;;
2020/12/07 22:42:50;;;;;;;35.6;21.7;;;;;;;-0.53;87.00293;98124.52;;;;
2020/12/07 22:52:47;;;;;;;34;23;;;;;;;-0.62;86.875;98121.5;;;;
2020/12/07 23:02:47;;;;;;;30.2;20.8;;;;;;;-0.6;86.97559;98118.61;;;;
2020/12/07 23:12:42;;;;;;;37.2;22.2;;;;;;;-0.56;86.50293;98125.02;;;;
2020/12/07 23:22:40;;;;;;;22.4;20.1;;;;;;;-0.61;86.67969;98132.88;;;;
2020/12/07 23:32:37;;;;;;;34.5;24;;;;;;;-0.6;86.3418;98119.42;;;;
2020/12/07 23:42:35;;;;;;;35.4;24.1;;;;;;;-0.56;86.33984;98125.82;;;;
2020/12/07 23:52:32;;;;;;;34.2;21.6;;;;;;;-0.46;85.86426;98134.92;;;;
